Time;durP1;ratioP1;P1;durP2;ratioP2;P2;SDS_P1;SDS_P2;PMS_P1;PMS_P2;Temp;Humidity;BMP_temperature;BMP_pressure;BME280_temperature;BME280_humidity;BME280_pressure;Samples;Min_cycle;Max_cycle;Signal;HPM_P1;HPM_P2
2022/08/08 00:00:37;;;;;;;1.73;0.40;;;14.30;99.90;;;;;;5032383;28;20192;-73
2022/08/08 00:03:10;;;;;;;3.00;0.60;;;14.40;99.90;;;;;;5032237;28;20186;-77
2022/08/08 00:05:50;;;;;;;0.63;0.55;;;14.50;99.90;;;;;;5023764;28;20196;-74
2022/08/08 00:08:25;;;;;;;0.70;0.40;;;14.70;99.90;;;;;;5024909;28;20202;-74
2022/08/08 00:11:02;;;;;;;1.45;0.60;;;14.80;99.90;;;;;;5028233;28;20557;-74
2022/08/08 00:13:41;;;;;;;2.97;0.50;;;15.00;99.90;;;;;;5026627;28;20190;-75
2022/08/08 00:16:25;;;;;;;1.27;0.50;;;15.10;99.90;;;;;;5031595;28;20202;-72
2022/08/08 00:19:00;;;;;;;1.75;0.80;;;15.10;99.90;;;;;;5029693;28;20194;-73
2022/08/08 00:21:36;;;;;;;2.30;0.50;;;15.20;99.90;;;;;;5032235;28;20198;-73
2022/08/08 00:24:13;;;;;;;2.38;0.60;;;15.30;99.90;;;;;;5031321;28;20239;-73
2022/08/08 00:26:47;;;;;;;2.63;0.50;;;15.50;99.90;;;;;;5027249;28;20236;-74
2022/08/08 00:29:23;;;;;;;2.03;0.40;;;15.50;99.90;;;;;;5027582;28;20197;-79
2022/08/08 00:31:59;;;;;;;4.03;0.70;;;15.60;99.90;;;;;;5032474;28;20194;-78
2022/08/08 00:38:01;;;;;;;2.45;0.60;;;15.80;99.90;;;;;;5038364;28;20204;-78
2022/08/08 00:41:07;;;;;;;2.42;0.75;;;15.90;99.90;;;;;;5029175;28;20256;-76
2022/08/08 00:44:09;;;;;;;2.97;0.40;;;16.00;99.90;;;;;;5035917;28;20229;-75
2022/08/08 00:47:26;;;;;;;4.85;0.60;;;16.10;99.90;;;;;;5014795;28;20230;-77
2022/08/08 00:50:31;;;;;;;1.10;0.50;;;16.00;99.90;;;;;;5021069;28;20202;-78
2022/08/08 00:53:10;;;;;;;2.70;0.40;;;16.10;99.90;;;;;;5034325;28;20529;-71
2022/08/08 00:56:22;;;;;;;4.03;0.52;;;16.30;99.90;;;;;;5031909;28;20193;-78
2022/08/08 00:59:31;;;;;;;2.47;0.45;;;16.50;99.90;;;;;;5031076;28;20210;-75
2022/08/08 01:02:29;;;;;;;1.55;0.35;;;16.70;99.90;;;;;;5034075;28;20194;-79
2022/08/08 01:05:27;;;;;;;6.22;0.82;;;16.80;99.90;;;;;;5030388;28;20202;-78
2022/08/08 01:08:32;;;;;;;1.00;0.40;;;16.80;99.90;;;;;;5030338;28;20234;-78
2022/08/08 01:11:40;;;;;;;2.35;0.30;;;16.90;99.90;;;;;;5035315;28;20206;-77
2022/08/08 01:14:47;;;;;;;2.00;0.30;;;17.10;99.90;;;;;;5032231;28;20206;-78
2022/08/08 01:17:40;;;;;;;0.70;0.50;;;17.10;99.90;;;;;;5013475;28;20202;-78
2022/08/08 01:20:44;;;;;;;1.27;0.40;;;17.20;99.90;;;;;;5034402;28;20199;-77
2022/08/08 01:23:46;;;;;;;2.30;0.47;;;17.20;99.90;;;;;;5032744;28;20205;-78
2022/08/08 01:26:40;;;;;;;1.58;0.40;;;17.30;99.90;;;;;;5030221;28;20237;-72
2022/08/08 01:29:46;;;;;;;1.10;0.40;;;17.20;99.90;;;;;;5030953;28;20202;-77
2022/08/08 01:32:51;;;;;;;0.80;0.40;;;17.10;99.90;;;;;;5033939;28;20199;-73
2022/08/08 01:36:01;;;;;;;1.25;0.40;;;17.30;99.90;;;;;;5028131;28;20209;-78
2022/08/08 01:39:14;;;;;;;4.28;0.80;;;17.30;99.90;;;;;;5033201;28;20268;-76
2022/08/08 01:41:55;;;;;;;1.27;0.50;;;16.90;99.90;;;;;;5025391;28;20685;-73
2022/08/08 01:44:49;;;;;;;1.13;0.30;;;16.70;99.90;;;;;;5029934;28;20657;-74
2022/08/08 01:47:32;;;;;;;2.83;0.45;;;17.00;99.90;;;;;;5036887;28;20225;-73
2022/08/08 01:50:13;;;;;;;1.02;0.32;;;16.90;99.90;;;;;;5034040;28;20286;-73
2022/08/08 01:52:54;;;;;;;1.77;0.30;;;17.10;99.90;;;;;;5033879;28;20202;-72
2022/08/08 01:55:35;;;;;;;2.65;0.50;;;17.20;99.90;;;;;;5032249;28;20662;-72
2022/08/08 01:58:29;;;;;;;1.02;0.50;;;17.30;99.90;;;;;;5033314;28;20216;-73
2022/08/08 02:01:10;;;;;;;1.00;0.55;;;17.20;99.90;;;;;;5032324;28;20673;-72
2022/08/08 02:03:53;;;;;;;2.40;0.30;;;17.20;99.90;;;;;;5032827;28;20205;-72
2022/08/08 02:06:42;;;;;;;3.35;0.57;;;17.00;99.90;;;;;;5032363;28;20197;-72
2022/08/08 02:09:25;;;;;;;1.42;0.40;;;16.90;99.90;;;;;;5024697;28;20203;-72
2022/08/08 02:11:57;;;;;;;1.13;0.50;;;16.70;99.90;;;;;;5030625;28;20590;-73
2022/08/08 02:14:35;;;;;;;2.28;0.60;;;16.70;99.90;;;;;;5032601;28;20194;-73
2022/08/08 02:17:13;;;;;;;3.63;0.63;;;16.80;99.90;;;;;;5031788;28;20205;-73
2022/08/08 02:19:50;;;;;;;2.05;0.40;;;17.00;99.90;;;;;;5029505;28;20230;-73
2022/08/08 02:22:33;;;;;;;0.95;0.40;;;17.10;99.90;;;;;;5032845;28;20194;-74
2022/08/08 02:25:16;;;;;;;3.40;0.22;;;17.20;99.90;;;;;;5032900;28;20195;-73
2022/08/08 02:27:55;;;;;;;1.13;0.30;;;17.30;99.90;;;;;;5031665;28;20256;-73
2022/08/08 02:30:36;;;;;;;0.90;0.30;;;17.50;99.90;;;;;;5030973;28;20205;-73
2022/08/08 02:33:31;;;;;;;0.47;0.20;;;17.50;99.90;;;;;;5032557;28;20289;-72
2022/08/08 02:36:28;;;;;;;0.75;0.40;;;17.50;99.90;;;;;;5033443;28;20194;-72
2022/08/08 02:39:35;;;;;;;0.73;0.30;;;17.70;99.90;;;;;;5032545;28;20349;-72
2022/08/08 02:42:43;;;;;;;1.20;0.60;;;17.70;99.90;;;;;;5016757;28;20209;-72
2022/08/08 02:45:48;;;;;;;1.23;0.43;;;17.60;99.90;;;;;;5029401;28;20202;-73
2022/08/08 02:48:50;;;;;;;1.35;0.30;;;17.70;99.90;;;;;;5027064;28;20233;-72
2022/08/08 02:51:53;;;;;;;2.55;0.50;;;17.70;99.90;;;;;;5022105;28;20210;-72
2022/08/08 02:55:05;;;;;;;1.75;0.40;;;17.70;99.90;;;;;;5030300;28;20209;-72
2022/08/08 02:58:09;;;;;;;1.48;0.40;;;17.60;99.90;;;;;;5029827;28;20194;-73
2022/08/08 03:01:00;;;;;;;0.93;0.38;;;17.50;99.90;;;;;;5013257;28;20666;-73
2022/08/08 03:04:03;;;;;;;0.60;0.30;;;17.50;99.90;;;;;;5031998;28;20198;-72
2022/08/08 03:07:19;;;;;;;1.13;0.47;;;17.40;99.90;;;;;;5023344;28;20201;-75
2022/08/08 03:10:25;;;;;;;0.40;0.25;;;17.50;99.90;;;;;;5026821;28;20253;-72
2022/08/08 03:13:36;;;;;;;2.60;0.50;;;17.50;99.90;;;;;;5032450;28;20603;-73
2022/08/08 03:16:26;;;;;;;1.35;0.30;;;17.40;99.90;;;;;;5029346;28;20202;-72
2022/08/08 03:19:21;;;;;;;1.10;0.40;;;17.40;99.90;;;;;;5031935;28;20202;-73
2022/08/08 03:21:50;;;;;;;1.02;0.40;;;17.40;99.90;;;;;;5026052;28;20229;-73
2022/08/08 03:24:23;;;;;;;0.82;0.32;;;17.40;99.90;;;;;;5033759;28;20210;-75
2022/08/08 03:26:57;;;;;;;2.35;0.30;;;17.30;99.90;;;;;;5028952;28;20682;-73
2022/08/08 03:29:37;;;;;;;0.77;0.30;;;17.40;99.90;;;;;;5030191;28;20202;-74
2022/08/08 03:34:56;;;;;;;2.22;0.65;;;17.20;99.90;;;;;;5030132;28;20201;-74
2022/08/08 03:37:27;;;;;;;3.15;0.40;;;17.30;99.90;;;;;;5031105;28;20209;-75
2022/08/08 03:40:02;;;;;;;2.28;0.40;;;17.30;99.90;;;;;;5031023;28;20234;-73
2022/08/08 03:42:33;;;;;;;2.65;0.60;;;17.30;99.90;;;;;;5027575;28;20202;-73
2022/08/08 03:45:03;;;;;;;1.33;0.30;;;17.20;99.90;;;;;;5030978;28;20202;-73
2022/08/08 03:47:34;;;;;;;3.35;0.50;;;17.20;99.90;;;;;;5031643;28;20580;-72
2022/08/08 03:50:04;;;;;;;1.50;0.35;;;17.20;99.90;;;;;;5032657;28;20202;-73
2022/08/08 03:52:35;;;;;;;1.42;0.55;;;17.20;99.90;;;;;;5030897;28;20197;-73
2022/08/08 03:55:12;;;;;;;2.15;0.57;;;17.30;99.90;;;;;;5030901;28;20213;-74
2022/08/08 03:57:48;;;;;;;0.93;0.40;;;17.20;99.90;;;;;;5033638;28;20189;-73
2022/08/08 04:00:20;;;;;;;0.32;0.25;;;17.30;99.90;;;;;;5028189;28;20194;-75
2022/08/08 04:02:59;;;;;;;0.77;0.10;;;17.20;99.90;;;;;;5024619;28;20202;-73
2022/08/08 04:05:31;;;;;;;1.33;0.40;;;17.30;99.90;;;;;;5029410;28;20202;-72
2022/08/08 04:08:04;;;;;;;1.20;0.38;;;17.20;99.90;;;;;;5029141;28;20616;-72
2022/08/08 04:10:37;;;;;;;1.08;0.30;;;17.10;99.90;;;;;;5028520;28;20657;-73
2022/08/08 04:13:08;;;;;;;0.55;0.30;;;17.00;99.90;;;;;;5025355;28;20220;-73
2022/08/08 04:15:38;;;;;;;0.57;0.20;;;16.90;99.90;;;;;;5029441;28;20198;-72
2022/08/08 04:18:09;;;;;;;0.43;0.30;;;16.90;99.90;;;;;;5028424;28;20649;-71
2022/08/08 04:20:40;;;;;;;2.00;0.30;;;16.80;99.90;;;;;;5028020;28;20210;-73
2022/08/08 04:23:11;;;;;;;2.33;0.52;;;16.90;99.90;;;;;;5027765;28;20202;-72
2022/08/08 04:25:43;;;;;;;0.77;0.35;;;16.80;99.90;;;;;;5028968;28;20219;-72
2022/08/08 04:28:14;;;;;;;2.10;0.55;;;16.80;99.90;;;;;;5031037;28;20214;-72
2022/08/08 04:30:45;;;;;;;2.40;0.47;;;16.60;99.90;;;;;;5031373;28;20186;-73
2022/08/08 04:33:15;;;;;;;1.33;0.50;;;16.40;99.90;;;;;;5033025;28;20194;-76
2022/08/08 04:35:46;;;;;;;1.25;0.60;;;16.30;99.90;;;;;;5031995;28;20213;-76
2022/08/08 04:38:17;;;;;;;2.60;0.63;;;16.30;99.90;;;;;;5031445;28;20213;-76
2022/08/08 04:40:49;;;;;;;2.30;0.70;;;16.10;99.90;;;;;;5028574;28;20692;-76
2022/08/08 04:43:20;;;;;;;3.78;0.50;;;16.10;99.90;;;;;;5029795;28;20449;-75
2022/08/08 04:45:51;;;;;;;3.55;0.57;;;16.10;99.90;;;;;;5030882;28;20209;-75
2022/08/08 04:48:22;;;;;;;3.00;0.50;;;16.10;99.90;;;;;;5027477;28;20221;-76
2022/08/08 04:50:53;;;;;;;3.00;0.50;;;16.10;99.90;;;;;;5030232;28;20209;-75
2022/08/08 04:53:23;;;;;;;2.10;0.50;;;16.00;99.90;;;;;;5034208;28;20245;-75
2022/08/08 04:55:56;;;;;;;4.60;0.50;;;16.10;99.90;;;;;;5030384;28;20198;-76
2022/08/08 04:58:26;;;;;;;3.97;0.70;;;16.10;99.90;;;;;;5030405;28;20287;-75
2022/08/08 05:00:57;;;;;;;1.40;0.35;;;16.20;99.90;;;;;;5028544;28;20260;-77
2022/08/08 05:03:28;;;;;;;3.25;0.70;;;16.20;99.90;;;;;;5029555;28;20202;-74
2022/08/08 05:06:01;;;;;;;1.20;0.50;;;16.20;99.90;;;;;;5031902;28;20194;-74
2022/08/08 05:08:32;;;;;;;1.15;0.40;;;16.10;99.90;;;;;;5030248;28;20214;-74
2022/08/08 05:11:06;;;;;;;1.63;0.52;;;16.10;99.90;;;;;;5031500;28;20201;-73
2022/08/08 05:13:37;;;;;;;1.92;0.50;;;16.10;99.90;;;;;;5031290;28;20530;-72
2022/08/08 05:16:08;;;;;;;3.00;0.50;;;16.10;99.90;;;;;;5026897;28;20206;-75
2022/08/08 05:18:39;;;;;;;2.20;0.50;;;16.20;99.90;;;;;;5032218;28;20214;-74
2022/08/08 05:21:11;;;;;;;3.80;0.55;;;16.20;99.90;;;;;;5035838;28;20206;-76
2022/08/08 05:23:41;;;;;;;0.82;0.50;;;16.10;99.90;;;;;;5031349;28;20248;-76
2022/08/08 05:26:14;;;;;;;2.28;0.50;;;16.10;99.90;;;;;;5024555;28;20227;-75
2022/08/08 05:28:44;;;;;;;2.10;0.50;;;16.10;99.90;;;;;;5034077;28;20221;-73
2022/08/08 05:31:16;;;;;;;1.08;0.40;;;16.00;99.90;;;;;;5037825;28;20197;-75
2022/08/08 05:33:46;;;;;;;0.20;0.20;;;16.00;99.90;;;;;;5035194;28;20536;-75
2022/08/08 05:36:22;;;;;;;1.35;0.40;;;16.00;99.90;;;;;;5035073;28;20672;-73
2022/08/08 05:38:54;;;;;;;3.75;0.50;;;16.00;99.90;;;;;;5026675;28;20233;-72
2022/08/08 05:41:28;;;;;;;0.73;0.40;;;15.90;99.90;;;;;;5034404;28;20194;-72
2022/08/08 05:44:05;;;;;;;0.93;0.40;;;15.90;99.90;;;;;;5027843;28;20555;-74
2022/08/08 05:46:36;;;;;;;2.38;0.43;;;15.80;99.90;;;;;;5029807;28;20725;-73
2022/08/08 05:49:08;;;;;;;2.17;0.40;;;15.90;99.90;;;;;;5034851;28;20673;-73
2022/08/08 05:51:39;;;;;;;2.50;0.52;;;15.90;99.90;;;;;;5033352;28;20187;-72
2022/08/08 05:54:11;;;;;;;0.28;0.20;;;15.90;99.90;;;;;;5034586;28;20645;-72
2022/08/08 05:56:45;;;;;;;2.47;0.40;;;15.90;99.90;;;;;;5034301;28;20634;-72
2022/08/08 05:59:20;;;;;;;2.20;0.43;;;15.80;99.90;;;;;;5032874;28;20546;-73
2022/08/08 06:01:57;;;;;;;2.67;0.50;;;15.80;99.90;;;;;;5027333;28;20194;-73
2022/08/08 06:04:30;;;;;;;0.90;0.30;;;15.70;99.90;;;;;;5030230;28;20186;-73
2022/08/08 06:07:02;;;;;;;1.25;0.45;;;15.70;99.90;;;;;;5027117;28;20242;-73
2022/08/08 06:09:36;;;;;;;1.10;0.57;;;15.70;99.90;;;;;;5032882;28;20221;-72
2022/08/08 06:12:09;;;;;;;1.30;0.43;;;15.70;99.90;;;;;;5032652;28;20205;-73
2022/08/08 06:14:40;;;;;;;4.22;0.50;;;15.70;99.90;;;;;;5033297;28;20210;-73
2022/08/08 06:17:11;;;;;;;1.85;0.57;;;15.60;99.90;;;;;;5030262;28;20202;-73
2022/08/08 06:19:43;;;;;;;4.18;0.45;;;15.60;99.90;;;;;;5029737;28;20575;-75
2022/08/08 06:22:14;;;;;;;5.10;0.68;;;15.50;99.90;;;;;;5033572;28;20198;-75
2022/08/08 06:24:44;;;;;;;2.15;0.60;;;15.40;99.90;;;;;;5031843;28;20187;-76
2022/08/08 06:27:23;;;;;;;3.17;0.50;;;15.40;99.90;;;;;;5033014;28;20689;-74
2022/08/08 06:30:04;;;;;;;2.25;0.70;;;15.40;99.90;;;;;;5033387;28;20621;-75
2022/08/08 06:32:40;;;;;;;2.08;0.35;;;15.30;99.90;;;;;;5032344;28;20194;-76
2022/08/08 06:35:14;;;;;;;3.40;0.70;;;15.30;99.90;;;;;;5032001;28;20198;-76
2022/08/08 06:37:48;;;;;;;3.60;0.50;;;15.20;99.90;;;;;;5033638;28;20190;-73
2022/08/08 06:40:19;;;;;;;1.35;0.50;;;15.20;99.90;;;;;;5033499;28;20226;-74
2022/08/08 06:42:58;;;;;;;2.75;0.47;;;15.20;99.90;;;;;;5033478;28;20210;-74
2022/08/08 06:45:32;;;;;;;3.58;0.98;;;15.20;99.90;;;;;;5033597;28;20190;-73
2022/08/08 06:48:03;;;;;;;2.53;0.60;;;15.10;99.90;;;;;;5028215;28;20215;-74
2022/08/08 06:50:35;;;;;;;2.92;0.50;;;15.10;99.90;;;;;;5033394;28;20194;-73
2022/08/08 06:53:06;;;;;;;2.35;0.57;;;15.00;99.90;;;;;;5032907;28;20651;-73
2022/08/08 06:55:38;;;;;;;2.35;0.60;;;15.00;99.90;;;;;;5033322;28;20206;-74
2022/08/08 06:58:13;;;;;;;3.58;0.82;;;14.90;99.90;;;;;;5032460;28;20198;-72
2022/08/08 07:00:47;;;;;;;2.75;0.93;;;14.90;99.90;;;;;;5032923;28;20185;-71
2022/08/08 07:03:28;;;;;;;1.60;0.50;;;14.80;99.90;;;;;;5027930;28;20197;-73
2022/08/08 07:05:58;;;;;;;0.52;0.30;;;14.80;99.90;;;;;;5033069;28;20198;-72
2022/08/08 07:08:38;;;;;;;5.85;0.70;;;14.70;99.90;;;;;;5035149;28;20206;-73
2022/08/08 07:11:11;;;;;;;1.38;0.43;;;14.60;99.90;;;;;;5031310;28;20194;-72
2022/08/08 07:13:46;;;;;;;2.17;0.50;;;14.60;99.90;;;;;;5029862;28;20205;-75
2022/08/08 07:16:26;;;;;;;6.45;0.70;;;14.50;99.90;;;;;;5031550;28;20201;-74
2022/08/08 07:19:12;;;;;;;3.15;0.50;;;14.50;99.90;;;;;;5035477;28;20216;-74
2022/08/08 07:21:54;;;;;;;1.75;0.52;;;14.40;99.90;;;;;;5030566;28;20213;-73
2022/08/08 07:24:31;;;;;;;2.25;0.50;;;14.30;99.90;;;;;;5031330;28;20194;-73
2022/08/08 07:27:02;;;;;;;5.15;0.57;;;14.30;99.90;;;;;;5032899;28;20226;-73
2022/08/08 07:29:37;;;;;;;3.25;0.50;;;14.30;99.90;;;;;;5029353;28;20218;-73
2022/08/08 07:32:09;;;;;;;2.08;0.55;;;14.20;99.90;;;;;;5031183;28;20289;-73
2022/08/08 07:34:40;;;;;;;3.88;0.70;;;14.10;99.90;;;;;;5031745;28;20202;-73
2022/08/08 07:37:14;;;;;;;2.78;0.60;;;14.20;99.90;;;;;;5030444;28;20202;-74
2022/08/08 07:39:45;;;;;;;3.22;0.52;;;14.10;99.90;;;;;;5031603;28;20241;-72
2022/08/08 07:42:18;;;;;;;4.50;0.50;;;14.10;99.90;;;;;;5030320;28;20199;-73
2022/08/08 07:44:51;;;;;;;1.35;0.57;;;14.10;99.90;;;;;;5032143;28;20620;-72
2022/08/08 07:47:21;;;;;;;2.17;0.70;;;14.00;99.90;;;;;;5027123;28;20661;-73
2022/08/08 07:49:52;;;;;;;3.70;0.63;;;14.00;99.90;;;;;;5034447;28;20220;-72
2022/08/08 07:52:23;;;;;;;3.42;0.60;;;14.00;99.90;;;;;;5034110;28;20202;-73
2022/08/08 07:55:12;;;;;;;4.53;1.02;;;13.90;99.90;;;;;;5032686;28;20198;-72
2022/08/08 07:57:52;;;;;;;2.97;0.70;;;13.90;99.90;;;;;;5025948;28;21019;-73
2022/08/08 08:00:29;;;;;;;4.80;0.80;;;13.90;99.90;;;;;;5031586;28;20211;-73
2022/08/08 08:03:12;;;;;;;3.83;0.73;;;13.90;99.90;;;;;;5032336;28;20201;-72
2022/08/08 08:05:45;;;;;;;2.65;0.65;;;13.80;99.90;;;;;;5023367;28;20208;-74
2022/08/08 08:08:19;;;;;;;3.15;0.73;;;13.80;99.90;;;;;;5030088;28;20673;-75
2022/08/08 08:10:53;;;;;;;6.25;0.60;;;13.80;99.90;;;;;;5030681;28;20205;-73
2022/08/08 08:13:33;;;;;;;3.60;0.60;;;13.80;99.90;;;;;;5031835;28;20209;-74
2022/08/08 08:16:08;;;;;;;1.70;0.60;;;13.70;99.90;;;;;;5029616;28;20589;-75
2022/08/08 08:18:44;;;;;;;5.53;1.00;;;13.70;99.90;;;;;;5029061;28;20208;-73
2022/08/08 08:21:16;;;;;;;4.72;0.90;;;13.70;99.90;;;;;;5027810;28;20558;-76
2022/08/08 08:23:47;;;;;;;3.47;0.70;;;13.70;99.90;;;;;;5028774;28;20197;-74
2022/08/08 08:26:18;;;;;;;3.40;0.80;;;13.70;99.90;;;;;;5031879;28;20720;-74
2022/08/08 08:28:48;;;;;;;4.93;0.90;;;13.60;99.90;;;;;;5033206;28;20210;-74
2022/08/08 08:31:21;;;;;;;4.35;0.70;;;13.60;99.90;;;;;;5030810;28;20202;-73
2022/08/08 08:33:52;;;;;;;2.28;0.80;;;13.60;99.90;;;;;;5031878;28;20669;-73
2022/08/08 08:36:23;;;;;;;4.25;1.17;;;13.60;99.90;;;;;;5029893;28;20210;-74
2022/08/08 08:38:54;;;;;;;2.72;0.75;;;13.60;99.90;;;;;;5030859;28;20570;-76
2022/08/08 08:41:25;;;;;;;3.10;0.80;;;13.60;99.90;;;;;;5030809;28;20195;-76
2022/08/08 08:43:58;;;;;;;2.65;0.80;;;13.50;99.90;;;;;;5031484;28;20202;-76
2022/08/08 08:46:31;;;;;;;4.40;0.70;;;13.50;99.90;;;;;;5030205;28;20198;-73
2022/08/08 08:49:03;;;;;;;2.63;0.80;;;13.50;99.90;;;;;;5028519;28;20245;-73
2022/08/08 08:51:37;;;;;;;5.30;0.90;;;13.50;99.90;;;;;;5030982;28;20200;-77
2022/08/08 08:54:09;;;;;;;5.72;0.88;;;13.40;99.90;;;;;;5034210;28;20214;-75
2022/08/08 08:56:41;;;;;;;4.25;0.80;;;13.40;99.90;;;;;;5038932;28;20657;-76
2022/08/08 08:59:13;;;;;;;3.85;0.80;;;13.40;99.90;;;;;;5035593;28;20202;-73
2022/08/08 09:01:49;;;;;;;3.63;0.90;;;13.40;99.90;;;;;;5035057;28;20195;-76
2022/08/08 09:04:25;;;;;;;1.88;0.93;;;13.40;99.90;;;;;;5035952;28;20198;-76
2022/08/08 09:06:57;;;;;;;4.55;0.68;;;13.40;99.90;;;;;;5034717;28;20212;-75
2022/08/08 09:09:30;;;;;;;3.08;0.70;;;13.40;99.90;;;;;;5033534;28;20275;-76
2022/08/08 09:12:03;;;;;;;3.35;0.77;;;13.40;99.90;;;;;;5035426;28;20193;-75
2022/08/08 09:14:35;;;;;;;3.80;0.85;;;13.40;99.90;;;;;;5033451;28;20194;-75
2022/08/08 09:17:07;;;;;;;3.20;0.85;;;13.40;99.90;;;;;;5036979;28;20559;-76
2022/08/08 09:19:38;;;;;;;3.22;0.68;;;13.40;99.90;;;;;;5033347;28;20496;-76
2022/08/08 09:22:09;;;;;;;4.28;0.90;;;13.40;99.90;;;;;;5035285;28;20202;-76
2022/08/08 09:24:41;;;;;;;3.30;0.77;;;13.30;99.90;;;;;;5035081;28;20226;-75
2022/08/08 09:27:12;;;;;;;2.35;0.60;;;13.30;99.90;;;;;;5034211;28;20222;-74
2022/08/08 09:29:54;;;;;;;1.88;0.60;;;13.30;99.90;;;;;;5034700;28;20546;-76
2022/08/08 09:32:38;;;;;;;1.70;0.80;;;13.30;99.90;;;;;;5035514;28;20194;-75
2022/08/08 09:35:12;;;;;;;3.03;1.08;;;13.30;99.90;;;;;;5037283;28;20202;-75
2022/08/08 09:37:47;;;;;;;3.92;1.02;;;13.30;99.90;;;;;;5032734;28;20653;-77
2022/08/08 09:40:19;;;;;;;3.40;0.65;;;13.20;99.90;;;;;;5034979;28;20229;-76
2022/08/08 09:42:51;;;;;;;2.33;0.80;;;13.30;99.90;;;;;;5034895;28;20209;-73
2022/08/08 09:45:23;;;;;;;4.55;0.75;;;13.30;99.90;;;;;;5030136;28;20600;-72
2022/08/08 09:47:56;;;;;;;3.97;0.70;;;13.30;99.90;;;;;;5034386;28;20201;-73
2022/08/08 09:50:29;;;;;;;3.38;0.60;;;13.20;99.90;;;;;;5034584;28;20214;-72
2022/08/08 09:53:03;;;;;;;3.72;0.73;;;13.20;99.90;;;;;;5026364;28;20206;-71
2022/08/08 09:55:34;;;;;;;1.98;0.70;;;13.20;99.90;;;;;;5032727;28;20194;-73
2022/08/08 09:58:15;;;;;;;1.55;0.60;;;13.20;99.90;;;;;;5033547;28;20213;-77
2022/08/08 10:00:49;;;;;;;1.45;0.70;;;13.20;99.90;;;;;;5032927;28;20600;-71
2022/08/08 10:03:23;;;;;;;3.72;0.82;;;13.10;99.90;;;;;;5032652;28;20199;-72
2022/08/08 10:05:53;;;;;;;3.80;0.90;;;13.10;99.90;;;;;;5034093;28;20675;-72
2022/08/08 10:08:24;;;;;;;2.42;0.70;;;13.10;99.90;;;;;;5036402;28;20611;-72
2022/08/08 10:11:01;;;;;;;4.95;0.85;;;13.10;99.90;;;;;;5033663;28;20249;-73
2022/08/08 10:13:31;;;;;;;4.97;0.80;;;13.10;99.90;;;;;;5033739;28;20194;-72
2022/08/08 10:16:04;;;;;;;3.05;0.75;;;13.10;99.90;;;;;;5033812;28;20187;-72
2022/08/08 10:18:38;;;;;;;4.15;1.00;;;13.00;99.90;;;;;;5033230;28;20190;-72
2022/08/08 10:21:10;;;;;;;4.63;1.00;;;13.00;99.90;;;;;;5026414;28;20206;-73
2022/08/08 10:23:45;;;;;;;2.47;0.70;;;13.00;99.90;;;;;;5033823;28;20186;-73
2022/08/08 10:26:21;;;;;;;3.13;0.90;;;13.00;99.90;;;;;;5027255;28;20217;-72
2022/08/08 10:28:57;;;;;;;4.07;1.08;;;13.00;99.90;;;;;;5032613;28;20639;-73
2022/08/08 10:34:21;;;;;;;7.93;1.08;;;13.00;99.90;;;;;;5027153;28;20660;-72
2022/08/08 10:36:53;;;;;;;4.00;1.13;;;12.90;99.90;;;;;;5032872;28;20201;-72
2022/08/08 10:39:24;;;;;;;3.08;0.93;;;12.90;99.90;;;;;;5033509;28;20229;-72
2022/08/08 10:41:59;;;;;;;3.65;1.08;;;12.90;99.90;;;;;;5033892;28;20727;-72
2022/08/08 10:44:36;;;;;;;5.22;1.23;;;12.90;99.90;;;;;;5034490;28;20194;-72
2022/08/08 10:47:14;;;;;;;3.45;1.00;;;12.90;99.90;;;;;;5031644;28;20237;-72
2022/08/08 10:49:52;;;;;;;4.72;1.10;;;12.80;99.90;;;;;;5029654;28;20218;-73
2022/08/08 10:52:28;;;;;;;5.22;1.00;;;12.80;99.90;;;;;;5033096;28;20193;-72
2022/08/08 10:55:00;;;;;;;4.07;1.05;;;12.70;99.90;;;;;;5032815;28;20276;-73
2022/08/08 10:57:31;;;;;;;3.90;1.10;;;12.70;99.90;;;;;;5033281;28;20190;-75
2022/08/08 11:00:03;;;;;;;3.35;1.00;;;12.70;99.90;;;;;;5032820;28;20214;-74
2022/08/08 11:02:35;;;;;;;5.13;1.48;;;12.60;99.90;;;;;;5032962;28;20542;-72
2022/08/08 11:05:10;;;;;;;3.35;1.10;;;12.60;99.90;;;;;;5031565;28;20198;-72
2022/08/08 11:07:42;;;;;;;3.97;1.13;;;12.60;99.90;;;;;;5032809;28;20194;-73
2022/08/08 11:10:15;;;;;;;3.30;1.30;;;12.50;99.90;;;;;;5033632;28;20210;-71
2022/08/08 11:12:50;;;;;;;4.75;1.02;;;12.50;99.90;;;;;;5032151;28;20206;-71
2022/08/08 11:15:22;;;;;;;6.75;1.23;;;12.50;99.90;;;;;;5030246;28;20572;-73
2022/08/08 11:17:53;;;;;;;6.78;1.20;;;12.40;99.90;;;;;;5030186;28;20198;-72
2022/08/08 11:20:27;;;;;;;2.55;1.10;;;12.40;99.90;;;;;;5033017;28;20190;-73
2022/08/08 11:22:59;;;;;;;3.55;1.20;;;12.40;99.90;;;;;;5035506;28;20189;-73
2022/08/08 11:25:31;;;;;;;4.45;1.25;;;12.30;99.90;;;;;;5032119;28;20236;-72
2022/08/08 11:28:04;;;;;;;2.28;1.20;;;12.30;99.90;;;;;;5031542;28;20194;-71
2022/08/08 11:30:35;;;;;;;3.08;1.30;;;12.20;99.90;;;;;;5032188;28;20245;-72
2022/08/08 11:33:07;;;;;;;3.83;1.50;;;12.20;99.90;;;;;;5032051;28;20202;-72
2022/08/08 11:35:39;;;;;;;5.13;1.48;;;12.20;99.90;;;;;;5032598;28;20585;-72
2022/08/08 11:38:10;;;;;;;4.78;1.58;;;12.10;99.90;;;;;;5031026;28;20715;-72
2022/08/08 11:40:41;;;;;;;4.97;1.52;;;12.10;99.90;;;;;;5032613;28;20633;-72
2022/08/08 11:43:13;;;;;;;7.75;1.80;;;12.00;99.90;;;;;;5028794;28;20220;-75
2022/08/08 11:45:44;;;;;;;5.78;1.70;;;12.00;99.90;;;;;;5028920;28;20205;-72
2022/08/08 11:48:15;;;;;;;6.30;1.75;;;11.90;99.90;;;;;;5029510;28;20222;-72
2022/08/08 11:50:49;;;;;;;5.60;1.40;;;11.90;99.90;;;;;;5029800;28;20226;-72
2022/08/08 11:53:20;;;;;;;1.88;1.20;;;11.90;99.90;;;;;;5031629;28;20557;-71
2022/08/08 11:55:52;;;;;;;2.45;1.20;;;11.80;99.90;;;;;;5031058;28;20212;-72
2022/08/08 11:58:33;;;;;;;2.60;1.30;;;11.80;99.90;;;;;;5031000;28;20700;-72
2022/08/08 12:01:07;;;;;;;2.90;1.27;;;11.70;99.90;;;;;;5030801;28;20240;-72
2022/08/08 12:03:44;;;;;;;2.90;1.30;;;11.70;99.90;;;;;;5029390;28;20181;-73
2022/08/08 12:06:21;;;;;;;3.47;1.40;;;11.70;99.90;;;;;;5030973;28;20198;-71
2022/08/08 12:08:51;;;;;;;8.63;1.73;;;11.70;99.90;;;;;;5032098;28;20684;-72
2022/08/08 12:11:22;;;;;;;3.60;1.42;;;11.60;99.90;;;;;;5031543;28;20221;-72
2022/08/08 12:13:53;;;;;;;5.38;1.40;;;11.50;99.90;;;;;;5029786;28;20202;-72
2022/08/08 12:16:24;;;;;;;2.75;1.60;;;11.50;99.90;;;;;;5029664;28;20195;-72
2022/08/08 12:18:55;;;;;;;3.22;1.30;;;11.50;99.90;;;;;;5030642;28;20201;-73
2022/08/08 12:21:30;;;;;;;2.70;1.25;;;11.50;99.90;;;;;;5029712;28;20202;-72
2022/08/08 12:24:07;;;;;;;3.60;1.45;;;11.40;99.90;;;;;;5027879;28;20196;-73
2022/08/08 12:26:44;;;;;;;2.22;1.25;;;11.40;99.90;;;;;;5029468;28;20226;-72
2022/08/08 12:29:26;;;;;;;3.20;1.48;;;11.30;99.90;;;;;;5035001;28;20190;-72
2022/08/08 12:32:08;;;;;;;3.75;1.55;;;11.30;99.90;;;;;;5031367;28;20194;-73
2022/08/08 12:34:42;;;;;;;5.43;1.23;;;11.30;99.90;;;;;;5032621;28;20204;-73
2022/08/08 12:37:22;;;;;;;1.80;1.13;;;11.30;99.90;;;;;;5035039;28;20217;-72
2022/08/08 12:39:52;;;;;;;2.67;1.25;;;11.20;99.90;;;;;;5035782;28;20233;-72
2022/08/08 12:42:23;;;;;;;3.28;1.42;;;11.20;99.90;;;;;;5035033;28;20205;-72
2022/08/08 12:45:05;;;;;;;5.00;1.10;;;11.20;99.90;;;;;;5031276;28;20808;-73
2022/08/08 12:47:36;;;;;;;2.58;1.38;;;11.10;99.90;;;;;;5036280;28;20197;-72
2022/08/08 12:50:07;;;;;;;3.28;1.70;;;11.10;99.90;;;;;;5035214;28;20217;-72
2022/08/08 12:52:41;;;;;;;3.97;1.15;;;11.10;99.90;;;;;;5034211;28;20205;-72
2022/08/08 12:55:13;;;;;;;4.03;1.77;;;11.10;99.90;;;;;;5035139;28;20646;-72
2022/08/08 12:57:44;;;;;;;4.43;1.38;;;11.00;99.90;;;;;;5034172;28;20186;-74
2022/08/08 13:00:15;;;;;;;4.70;1.38;;;10.90;99.90;;;;;;5034442;28;20198;-74
2022/08/08 13:02:46;;;;;;;2.05;1.20;;;10.90;99.90;;;;;;5033248;28;20209;-73
2022/08/08 13:05:23;;;;;;;3.00;1.30;;;10.80;99.90;;;;;;5035811;28;20194;-74
2022/08/08 13:07:55;;;;;;;4.00;1.23;;;10.80;99.90;;;;;;5027497;28;20257;-73
2022/08/08 13:10:34;;;;;;;3.15;1.30;;;10.80;99.90;;;;;;5033372;28;20720;-74
2022/08/08 13:13:05;;;;;;;2.70;1.30;;;10.70;99.90;;;;;;5034919;28;20230;-75
2022/08/08 13:15:35;;;;;;;3.92;1.20;;;10.70;99.90;;;;;;5034560;28;20191;-74
2022/08/08 13:18:17;;;;;;;4.57;1.25;;;10.70;99.90;;;;;;5034629;28;20711;-75
2022/08/08 13:20:48;;;;;;;3.30;1.40;;;10.60;99.90;;;;;;5035225;28;20264;-74
2022/08/08 13:23:21;;;;;;;2.20;1.30;;;10.60;99.90;;;;;;5034359;28;20191;-75
2022/08/08 13:25:52;;;;;;;3.30;1.60;;;10.60;99.90;;;;;;5034534;28;20214;-73
2022/08/08 13:28:32;;;;;;;3.03;1.40;;;10.60;99.90;;;;;;5035980;28;20665;-74
2022/08/08 13:31:03;;;;;;;3.28;1.00;;;10.60;99.90;;;;;;5033444;28;20681;-76
2022/08/08 13:33:34;;;;;;;4.22;1.35;;;10.60;99.90;;;;;;5033651;28;20202;-74
2022/08/08 13:36:06;;;;;;;1.90;1.10;;;10.50;99.90;;;;;;5033934;28;20265;-74
2022/08/08 13:38:41;;;;;;;3.60;1.25;;;10.50;99.90;;;;;;5030129;28;20226;-74
2022/08/08 13:41:12;;;;;;;4.78;1.30;;;10.50;99.90;;;;;;5034100;28;20189;-74
2022/08/08 13:43:43;;;;;;;2.40;1.27;;;10.50;99.90;;;;;;5032838;28;20649;-73
2022/08/08 13:46:15;;;;;;;2.13;1.10;;;10.50;99.90;;;;;;5032297;28;20225;-74
2022/08/08 13:48:50;;;;;;;3.10;1.30;;;10.40;99.90;;;;;;5032270;28;20720;-73